createdAt,value
2023-06-15T00:01:02.182Z,5.87
2023-06-15T00:03:29.374Z,6.20
2023-06-15T00:05:56.874Z,6.97
2023-06-15T00:08:24.076Z,6.00
2023-06-15T00:10:51.204Z,6.43
2023-06-15T00:13:18.569Z,6.90
2023-06-15T00:15:45.705Z,7.17
2023-06-15T00:18:13.559Z,7.53
2023-06-15T00:20:40.969Z,7.83
2023-06-15T00:23:09.870Z,7.07
2023-06-15T00:25:37.958Z,6.80
2023-06-15T00:28:05.617Z,6.50
2023-06-15T00:30:32.847Z,6.87
2023-06-15T00:33:00.157Z,6.87
2023-06-15T00:35:27.379Z,6.03
2023-06-15T00:37:55.906Z,6.23
2023-06-15T00:40:22.947Z,5.90
2023-06-15T00:42:50.080Z,5.77
2023-06-15T00:45:17.464Z,5.53
2023-06-15T00:47:47.359Z,5.70
2023-06-15T00:50:19.519Z,5.17
2023-06-15T00:52:50.204Z,5.40
2023-06-15T00:55:17.789Z,5.23
2023-06-15T00:57:50.667Z,5.23
2023-06-15T01:00:19.285Z,5.13
2023-06-15T01:02:50.218Z,5.53
2023-06-15T01:05:19.058Z,5.10
2023-06-15T01:07:48.698Z,5.90
2023-06-15T01:10:18.064Z,5.60
2023-06-15T01:12:47.122Z,5.10
2023-06-15T01:15:15.044Z,5.67
2023-06-15T01:17:46.162Z,5.10
2023-06-15T01:20:27.905Z,5.63
2023-06-15T01:23:20.363Z,5.07
2023-06-15T01:25:50.279Z,5.60
2023-06-15T01:28:21.661Z,5.60
2023-06-15T01:30:52.134Z,5.00
2023-06-15T01:33:19.611Z,5.17
2023-06-15T01:35:46.665Z,5.03
2023-06-15T01:38:15.165Z,4.97
2023-06-15T01:40:48.089Z,5.20
2023-06-15T01:43:18.468Z,5.17
2023-06-15T01:45:48.129Z,5.27
2023-06-15T01:48:15.574Z,5.33
2023-06-15T01:50:43.069Z,5.50
2023-06-15T01:53:10.669Z,4.87
2023-06-15T01:55:37.705Z,4.97
2023-06-15T01:58:04.775Z,5.80
2023-06-15T02:00:32.296Z,5.10
2023-06-15T02:02:59.373Z,5.10
2023-06-15T02:05:26.467Z,5.20
2023-06-15T02:07:53.494Z,4.83
2023-06-15T02:10:20.620Z,5.27
2023-06-15T02:12:47.747Z,5.50
2023-06-15T02:15:20.317Z,5.07
2023-06-15T02:17:47.630Z,5.33
2023-06-15T02:20:17.184Z,5.40
2023-06-15T02:22:45.116Z,4.83
2023-06-15T02:25:13.765Z,4.67
2023-06-15T02:27:40.809Z,5.77
2023-06-15T02:30:08.784Z,5.73
2023-06-15T02:32:38.897Z,4.53
2023-06-15T02:35:10.814Z,4.97
2023-06-15T02:37:39.440Z,4.93
2023-06-15T02:40:08.269Z,5.40
2023-06-15T02:42:36.350Z,5.03
2023-06-15T02:45:04.625Z,4.63
2023-06-15T02:47:32.486Z,5.37
2023-06-15T02:50:01.073Z,4.90
2023-06-15T02:52:33.625Z,4.47
2023-06-15T02:55:02.439Z,4.70
2023-06-15T02:57:29.983Z,5.17
2023-06-15T03:00:15.122Z,4.60
2023-06-15T03:02:49.708Z,4.77
2023-06-15T03:05:19.674Z,4.20
2023-06-15T03:07:52.730Z,4.73
2023-06-15T03:10:34.869Z,5.43
2023-06-15T03:13:02.381Z,4.20
2023-06-15T03:15:29.346Z,5.67
2023-06-15T03:17:57.548Z,4.70
2023-06-15T03:20:33.729Z,4.77
2023-06-15T03:23:02.234Z,5.00
2023-06-15T03:25:32.034Z,5.10
2023-06-15T03:28:00.522Z,5.30
2023-06-15T03:30:30.215Z,5.07
2023-06-15T03:33:01.125Z,5.30
2023-06-15T03:35:29.085Z,5.07
2023-06-15T03:37:56.156Z,5.00
2023-06-15T03:40:23.281Z,4.77
2023-06-15T03:42:50.386Z,4.80
2023-06-15T03:45:19.462Z,5.13
2023-06-15T03:47:50.936Z,4.77
2023-06-15T03:50:18.781Z,5.63
2023-06-15T03:52:46.164Z,5.77
2023-06-15T03:55:14.519Z,6.00
2023-06-15T03:57:42.482Z,5.27
2023-06-15T04:00:10.491Z,5.87
2023-06-15T04:02:40.845Z,5.83
2023-06-15T04:05:11.168Z,6.23
2023-06-15T04:07:38.390Z,6.87
2023-06-15T04:10:07.177Z,6.53
2023-06-15T04:12:34.434Z,6.00
2023-06-15T04:15:01.703Z,6.57
2023-06-15T04:17:28.934Z,6.57
2023-06-15T04:19:56.467Z,7.03
2023-06-15T04:22:24.211Z,6.77
2023-06-15T04:24:52.680Z,6.53
2023-06-15T04:27:20.721Z,6.20
2023-06-15T04:29:51.277Z,7.17
2023-06-15T04:32:18.774Z,7.03
2023-06-15T04:34:46.607Z,6.93
2023-06-15T04:37:18.266Z,6.53
2023-06-15T04:39:46.891Z,6.40
2023-06-15T04:42:14.024Z,6.33
2023-06-15T04:44:41.331Z,6.53
2023-06-15T04:47:09.239Z,6.77
2023-06-15T04:49:36.342Z,6.50
2023-06-15T04:52:06.097Z,6.57
2023-06-15T04:54:37.958Z,6.10
2023-06-15T04:57:10.047Z,6.33
2023-06-15T04:59:40.946Z,5.80
2023-06-15T05:02:09.272Z,5.77
2023-06-15T05:04:39.240Z,6.60
2023-06-15T05:07:07.048Z,5.60
2023-06-15T05:09:39.329Z,6.17
2023-06-15T05:12:11.045Z,5.40
2023-06-15T05:14:38.261Z,5.73
2023-06-15T05:17:07.550Z,5.63
2023-06-15T05:19:34.838Z,5.73
2023-06-15T05:22:03.204Z,5.27
2023-06-15T05:24:34.223Z,5.70
2023-06-15T05:27:02.322Z,5.60
2023-06-15T05:29:30.063Z,5.60
2023-06-15T05:31:57.725Z,5.13
2023-06-15T05:34:27.863Z,5.03
2023-06-15T05:36:57.857Z,5.30
2023-06-15T05:39:38.705Z,5.50
2023-06-15T05:42:06.421Z,5.23
2023-06-15T05:44:35.316Z,5.17
2023-06-15T05:47:02.477Z,5.57
2023-06-15T05:49:29.589Z,5.93
2023-06-15T05:51:56.905Z,6.07
2023-06-15T05:54:26.998Z,5.90
2023-06-15T05:56:55.831Z,5.60
2023-06-15T05:59:32.735Z,5.30
2023-06-15T06:02:02.877Z,5.47
2023-06-15T06:04:32.186Z,4.77
2023-06-15T06:06:59.491Z,5.23
2023-06-15T06:09:28.381Z,4.77
2023-06-15T06:11:56.525Z,4.50
2023-06-15T06:14:23.544Z,4.60
2023-06-15T06:16:50.672Z,4.70
2023-06-15T06:19:17.730Z,5.33
2023-06-15T06:21:44.942Z,5.17
2023-06-15T06:24:12.293Z,4.63
2023-06-15T06:26:39.390Z,4.70
2023-06-15T06:29:06.389Z,4.60
2023-06-15T06:31:33.756Z,3.97
2023-06-15T06:34:00.939Z,4.50
2023-06-15T06:36:28.524Z,4.03
2023-06-15T06:39:02.803Z,3.53
2023-06-15T06:41:30.626Z,4.60
2023-06-15T06:43:58.175Z,3.70
2023-06-15T06:46:25.262Z,3.50
2023-06-15T06:48:53.134Z,3.47
2023-06-15T06:51:20.437Z,3.60
2023-06-15T06:53:48.262Z,3.70
2023-06-15T06:56:15.667Z,3.03
2023-06-15T06:58:42.797Z,3.10
2023-06-15T07:01:09.830Z,3.07
2023-06-15T07:03:38.981Z,3.07
2023-06-15T07:06:06.331Z,2.70
2023-06-15T07:08:34.820Z,3.50
2023-06-15T07:11:02.797Z,2.60
2023-06-15T07:13:29.842Z,2.77
2023-06-15T07:15:59.188Z,2.93
2023-06-15T07:18:26.897Z,3.10
2023-06-15T07:20:57.356Z,3.17
2023-06-15T07:23:25.202Z,2.90
2023-06-15T07:25:53.495Z,3.30
2023-06-15T07:28:21.056Z,2.77
2023-06-15T07:30:51.821Z,2.80
2023-06-15T07:33:19.373Z,3.30
2023-06-15T07:35:46.722Z,3.10
2023-06-15T07:38:15.746Z,2.90
2023-06-15T07:40:43.080Z,2.67
2023-06-15T07:43:10.688Z,2.60
2023-06-15T07:45:37.899Z,2.73
2023-06-15T07:48:06.030Z,2.80
2023-06-15T07:50:33.352Z,2.70
2023-06-15T07:53:00.676Z,2.60
2023-06-15T07:55:27.745Z,2.40
2023-06-15T07:57:54.812Z,2.97
2023-06-15T08:00:22.603Z,2.80
2023-06-15T08:02:59.696Z,2.87
2023-06-15T08:05:26.845Z,3.00
2023-06-15T08:07:53.958Z,2.60
2023-06-15T08:10:21.158Z,2.70
2023-06-15T08:12:48.163Z,2.47
2023-06-15T08:15:15.759Z,2.93
2023-06-15T08:17:42.719Z,2.47
2023-06-15T08:20:10.673Z,3.03
2023-06-15T08:22:37.830Z,2.93
2023-06-15T08:25:05.567Z,2.97
2023-06-15T08:27:32.463Z,2.77
2023-06-15T08:30:00.002Z,2.90
2023-06-15T08:32:27.277Z,2.90
2023-06-15T08:34:54.313Z,3.17
2023-06-15T08:37:21.288Z,3.13
2023-06-15T08:39:48.828Z,3.27
2023-06-15T08:42:18.495Z,2.87
2023-06-15T08:44:49.049Z,3.20
2023-06-15T08:47:16.080Z,2.53
2023-06-15T08:49:44.342Z,3.07
2023-06-15T08:52:14.137Z,3.07
2023-06-15T08:54:43.719Z,3.10
2023-06-15T08:57:11.034Z,3.20
2023-06-15T08:59:38.346Z,3.37
2023-06-15T09:02:09.162Z,2.53
2023-06-15T09:04:36.204Z,3.03
2023-06-15T09:07:04.793Z,3.10
2023-06-15T09:09:32.264Z,3.13
2023-06-15T09:11:59.181Z,3.00
2023-06-15T09:14:26.214Z,3.10
2023-06-15T09:16:53.397Z,3.43
2023-06-15T09:19:20.973Z,3.53
2023-06-15T09:21:52.613Z,3.67
2023-06-15T09:24:23.203Z,3.37
2023-06-15T09:26:50.966Z,3.80
2023-06-15T09:29:18.375Z,3.40
2023-06-15T09:31:45.818Z,3.70
2023-06-15T09:34:14.413Z,3.70
2023-06-15T09:36:49.949Z,4.00
2023-06-15T09:39:23.969Z,3.83
2023-06-15T09:42:04.027Z,3.70
2023-06-15T09:44:31.276Z,3.40
2023-06-15T09:47:01.512Z,3.47
2023-06-15T09:49:29.839Z,3.63
2023-06-15T09:51:57.308Z,3.20
2023-06-15T09:54:29.582Z,3.40
2023-06-15T09:56:56.963Z,3.73
2023-06-15T09:59:24.718Z,3.50
2023-06-15T10:01:55.567Z,3.87
2023-06-15T10:04:27.123Z,3.50
2023-06-15T10:07:02.213Z,4.00
2023-06-15T10:09:37.455Z,4.33
2023-06-15T10:12:18.199Z,3.67
2023-06-15T10:15:01.899Z,3.57
2023-06-15T10:17:36.790Z,3.50
2023-06-15T10:20:10.129Z,4.30
2023-06-15T10:22:52.640Z,3.83
2023-06-15T10:25:20.664Z,4.40
2023-06-15T10:27:48.552Z,4.23
2023-06-15T10:30:16.286Z,4.07
2023-06-15T10:33:27.538Z,4.03
2023-06-15T10:36:04.317Z,3.80
2023-06-15T10:38:45.709Z,4.40
2023-06-15T10:41:13.405Z,3.60
2023-06-15T10:43:40.556Z,4.17
2023-06-15T10:46:26.387Z,4.23
2023-06-15T10:48:54.855Z,4.47
2023-06-15T10:51:26.309Z,3.67
2023-06-15T10:53:55.443Z,4.03
2023-06-15T10:56:22.529Z,4.23
2023-06-15T10:58:52.655Z,4.20
2023-06-15T11:01:33.298Z,3.90
2023-06-15T11:04:19.719Z,4.03
2023-06-15T11:06:58.654Z,4.50
2023-06-15T11:09:35.941Z,4.73
2023-06-15T11:12:03.138Z,3.83
2023-06-15T11:14:32.945Z,3.90
2023-06-15T11:17:07.173Z,4.13
2023-06-15T11:19:43.548Z,4.43
2023-06-15T11:22:12.917Z,4.97
2023-06-15T11:24:40.957Z,4.67
2023-06-15T11:27:11.444Z,5.23
2023-06-15T11:29:42.484Z,4.70
2023-06-15T11:32:11.046Z,4.93
2023-06-15T11:34:39.416Z,5.10
2023-06-15T11:37:08.034Z,4.90
2023-06-15T11:39:35.043Z,4.47
2023-06-15T11:42:02.187Z,4.47
2023-06-15T11:44:29.313Z,4.70
2023-06-15T11:46:57.753Z,4.87
2023-06-15T11:49:25.082Z,4.77
2023-06-15T11:51:55.326Z,4.77
2023-06-15T11:54:45.168Z,4.27
2023-06-15T11:57:17.373Z,3.83
2023-06-15T11:59:44.402Z,4.23
2023-06-15T12:02:14.208Z,4.30
2023-06-15T12:04:41.644Z,4.70
2023-06-15T12:07:09.872Z,4.10
2023-06-15T12:09:37.916Z,4.67
2023-06-15T12:12:05.598Z,4.40
2023-06-15T12:14:32.606Z,4.53
2023-06-15T12:16:59.686Z,4.57
2023-06-15T12:19:27.815Z,4.33
2023-06-15T12:21:59.608Z,3.93
2023-06-15T12:24:26.696Z,4.20
2023-06-15T12:26:59.430Z,4.20
2023-06-15T12:29:26.977Z,3.77
2023-06-15T12:31:55.895Z,4.60
2023-06-15T12:34:27.672Z,4.40
2023-06-15T12:36:56.386Z,4.67
2023-06-15T12:39:29.119Z,4.03
2023-06-15T12:42:01.763Z,4.07
2023-06-15T12:44:30.640Z,4.20
2023-06-15T12:46:57.590Z,3.93
2023-06-15T12:49:24.587Z,3.93
2023-06-15T12:51:53.308Z,3.70
2023-06-15T12:54:23.795Z,3.80
2023-06-15T12:56:51.605Z,4.03
2023-06-15T12:59:18.665Z,3.40
2023-06-15T13:01:45.678Z,3.63
2023-06-15T13:04:13.314Z,3.43
2023-06-15T13:06:40.378Z,3.80
2023-06-15T13:09:07.791Z,3.90
2023-06-15T13:11:34.728Z,3.70
2023-06-15T13:14:02.106Z,3.80
2023-06-15T13:16:29.097Z,3.30
2023-06-15T13:18:56.149Z,6.50
2023-06-15T13:21:23.309Z,3.00
2023-06-15T13:23:50.461Z,8.10
2023-06-15T13:26:17.466Z,3.27
2023-06-15T13:28:44.753Z,3.00
2023-06-15T13:31:11.659Z,3.03
2023-06-15T13:33:40.163Z,2.60
2023-06-15T13:36:07.232Z,3.40
2023-06-15T13:38:34.409Z,3.43
2023-06-15T13:41:01.590Z,3.67
2023-06-15T13:43:28.598Z,3.00
2023-06-15T13:45:55.774Z,3.40
2023-06-15T13:48:23.346Z,3.67
2023-06-15T13:50:50.555Z,3.40
2023-06-15T13:53:17.572Z,3.97
2023-06-15T13:55:44.808Z,3.00
2023-06-15T13:58:12.048Z,3.57
2023-06-15T14:00:39.684Z,3.40
2023-06-15T14:03:07.754Z,3.23
2023-06-15T14:05:35.203Z,3.30
2023-06-15T14:08:02.757Z,3.27
2023-06-15T14:10:29.778Z,3.10
2023-06-15T14:12:57.676Z,3.37
2023-06-15T14:15:25.129Z,2.90
2023-06-15T14:17:52.456Z,3.13
2023-06-15T14:20:19.761Z,3.13
2023-06-15T14:22:47.230Z,3.10
2023-06-15T14:25:15.852Z,3.07
2023-06-15T14:27:47.020Z,3.07
2023-06-15T14:30:16.232Z,3.03
2023-06-15T14:32:43.457Z,3.10
2023-06-15T14:35:11.532Z,3.20
2023-06-15T14:37:38.524Z,3.07
2023-06-15T14:40:06.758Z,3.20
2023-06-15T14:42:34.593Z,3.30
2023-06-15T14:45:02.415Z,3.07
2023-06-15T14:47:29.412Z,3.33
2023-06-15T14:49:56.727Z,2.70
2023-06-15T14:52:23.740Z,3.00
2023-06-15T14:54:50.856Z,2.67
2023-06-15T14:57:17.912Z,3.30
2023-06-15T14:59:45.192Z,2.73
2023-06-15T15:02:12.241Z,3.13
2023-06-15T15:04:39.733Z,2.83
2023-06-15T15:07:06.687Z,2.60
2023-06-15T15:09:33.965Z,2.80
2023-06-15T15:12:01.423Z,2.60
2023-06-15T15:14:28.412Z,3.10
2023-06-15T15:16:55.714Z,3.20
2023-06-15T15:19:23.044Z,3.30
2023-06-15T15:21:50.273Z,2.60
2023-06-15T15:24:17.698Z,3.10
2023-06-15T15:26:44.792Z,2.90
2023-06-15T15:29:11.974Z,3.47
2023-06-15T15:31:39.000Z,3.20
2023-06-15T15:34:06.326Z,2.87
2023-06-15T15:36:33.559Z,3.03
2023-06-15T15:39:02.117Z,2.83
2023-06-15T15:41:29.066Z,3.53
2023-06-15T15:43:56.288Z,3.20
2023-06-15T15:46:23.389Z,2.87
2023-06-15T15:48:50.567Z,3.27
2023-06-15T15:51:17.836Z,3.00
2023-06-15T15:53:44.814Z,2.90
2023-06-15T15:56:12.086Z,2.47
2023-06-15T15:58:39.089Z,2.67
2023-06-15T16:01:17.319Z,2.77
2023-06-15T16:03:44.555Z,3.30
2023-06-15T16:06:11.612Z,3.00
2023-06-15T16:08:38.574Z,2.37
2023-06-15T16:11:05.748Z,2.53
2023-06-15T16:13:32.750Z,2.87
2023-06-15T16:16:14.976Z,3.27
2023-06-15T16:18:46.854Z,2.50
2023-06-15T16:21:14.058Z,3.13
2023-06-15T16:23:41.063Z,2.93
2023-06-15T16:26:08.016Z,2.70
2023-06-15T16:28:35.350Z,2.73
2023-06-15T16:31:02.421Z,3.17
2023-06-15T16:33:29.453Z,2.80
2023-06-15T16:35:56.764Z,2.87
2023-06-15T16:38:23.749Z,2.90
2023-06-15T16:40:50.816Z,3.07
2023-06-15T16:43:17.847Z,2.70
2023-06-15T16:45:44.852Z,2.77
2023-06-15T16:48:12.075Z,3.00
2023-06-15T16:50:39.240Z,3.10
2023-06-15T16:53:06.308Z,2.70
2023-06-15T16:55:33.269Z,3.20
2023-06-15T16:58:01.537Z,3.53
2023-06-15T17:00:29.554Z,2.73
2023-06-15T17:02:56.899Z,3.00
2023-06-15T17:05:24.058Z,3.27
2023-06-15T17:07:51.227Z,3.03
2023-06-15T17:10:19.099Z,2.70
2023-06-15T17:12:46.552Z,2.73
2023-06-15T17:15:13.493Z,2.63
2023-06-15T17:17:41.403Z,3.37
2023-06-15T17:20:09.058Z,2.93
2023-06-15T17:22:36.362Z,3.20
2023-06-15T17:25:03.482Z,3.10
2023-06-15T17:27:30.536Z,2.80
2023-06-15T17:29:57.515Z,3.80
2023-06-15T17:32:25.977Z,3.77
2023-06-15T17:34:53.044Z,2.83
2023-06-15T17:37:22.015Z,3.17
2023-06-15T17:39:49.128Z,2.70
2023-06-15T17:42:16.429Z,2.90
2023-06-15T17:44:43.450Z,3.37
2023-06-15T17:47:10.457Z,3.30
2023-06-15T17:49:37.503Z,2.90
2023-06-15T17:52:08.012Z,3.13
2023-06-15T17:54:35.120Z,3.10
2023-06-15T17:57:02.393Z,2.93
2023-06-15T17:59:29.521Z,3.57
2023-06-15T18:01:56.510Z,3.17
2023-06-15T18:04:23.622Z,3.00
2023-06-15T18:06:50.781Z,3.00
2023-06-15T18:09:17.762Z,2.60
2023-06-15T18:11:45.026Z,3.10
2023-06-15T18:14:12.139Z,2.87
2023-06-15T18:16:39.296Z,3.20
2023-06-15T18:19:06.700Z,3.37
2023-06-15T18:21:33.603Z,3.27
2023-06-15T18:24:00.723Z,3.10
2023-06-15T18:26:28.111Z,2.90
2023-06-15T18:28:56.328Z,3.07
2023-06-15T18:31:23.374Z,2.87
2023-06-15T18:33:50.671Z,3.20
2023-06-15T18:36:17.614Z,3.00
2023-06-15T18:38:45.796Z,3.03
2023-06-15T18:41:12.816Z,3.20
2023-06-15T18:43:42.846Z,3.43
2023-06-15T18:46:09.921Z,3.00
2023-06-15T18:48:37.420Z,3.00
2023-06-15T18:51:05.015Z,3.63
2023-06-15T18:53:32.017Z,2.80
2023-06-15T18:55:59.788Z,3.50
2023-06-15T18:58:26.945Z,3.13
2023-06-15T19:00:53.907Z,2.87
2023-06-15T19:03:21.232Z,3.77
2023-06-15T19:05:51.290Z,3.40
2023-06-15T19:08:19.905Z,3.40
2023-06-15T19:10:47.113Z,3.10
2023-06-15T19:13:14.112Z,3.30
2023-06-15T19:15:41.225Z,3.30
2023-06-15T19:18:08.289Z,2.90
2023-06-15T19:20:35.312Z,3.70
2023-06-15T19:23:02.409Z,3.13
2023-06-15T19:25:29.420Z,3.20
2023-06-15T19:27:56.370Z,3.77
2023-06-15T19:30:23.288Z,3.10
2023-06-15T19:32:50.528Z,2.90
2023-06-15T19:35:18.067Z,3.03
2023-06-15T19:37:45.270Z,3.50
2023-06-15T19:40:12.981Z,3.30
2023-06-15T19:42:41.740Z,3.57
2023-06-15T19:45:10.008Z,3.60
2023-06-15T19:47:40.737Z,3.53
2023-06-15T19:50:08.388Z,3.60
2023-06-15T19:52:35.440Z,3.77
2023-06-15T19:55:03.093Z,3.70
2023-06-15T19:57:30.090Z,3.70
2023-06-15T19:59:57.696Z,4.53
2023-06-15T20:02:24.854Z,4.30
2023-06-15T20:04:51.979Z,4.50
2023-06-15T20:07:18.972Z,4.33
2023-06-15T20:09:46.531Z,4.43
2023-06-15T20:12:13.593Z,4.23
2023-06-15T20:14:40.667Z,5.00
2023-06-15T20:17:07.673Z,4.63
2023-06-15T20:19:34.652Z,4.97
2023-06-15T20:22:03.663Z,4.90
2023-06-15T20:24:31.091Z,5.40
2023-06-15T20:26:58.206Z,5.40
2023-06-15T20:29:25.519Z,5.77
2023-06-15T20:31:52.594Z,5.27
2023-06-15T20:34:19.574Z,5.17
2023-06-15T20:36:47.188Z,5.60
2023-06-15T20:39:16.092Z,5.97
2023-06-15T20:41:43.027Z,5.20
2023-06-15T20:44:10.169Z,6.00
2023-06-15T20:46:37.421Z,6.33
2023-06-15T20:49:04.556Z,6.43
2023-06-15T20:51:31.650Z,5.80
2023-06-15T20:53:58.700Z,6.70
2023-06-15T20:56:25.655Z,6.07
2023-06-15T20:58:54.496Z,6.10
2023-06-15T21:01:22.517Z,6.53
2023-06-15T21:03:49.628Z,5.80
2023-06-15T21:06:16.648Z,6.40
2023-06-15T21:08:44.323Z,6.17
2023-06-15T21:11:11.490Z,7.20
2023-06-15T21:13:38.472Z,5.93
2023-06-15T21:16:08.711Z,6.57
2023-06-15T21:18:36.360Z,6.20
2023-06-15T21:21:04.688Z,7.27
2023-06-15T21:23:34.198Z,6.60
2023-06-15T21:26:01.806Z,6.90
2023-06-15T21:28:28.880Z,6.57
2023-06-15T21:30:56.059Z,6.63
2023-06-15T21:33:23.101Z,6.23
2023-06-15T21:35:50.154Z,6.57
2023-06-15T21:38:18.651Z,6.07
2023-06-15T21:40:45.657Z,7.50
2023-06-15T21:43:12.710Z,6.30
2023-06-15T21:45:40.044Z,7.30
2023-06-15T21:48:07.159Z,7.43
2023-06-15T21:50:34.259Z,6.97
2023-06-15T21:53:01.576Z,6.93
2023-06-15T21:55:29.638Z,6.87
2023-06-15T21:57:57.575Z,8.27
2023-06-15T22:00:25.243Z,6.93
2023-06-15T22:02:52.357Z,7.30
2023-06-15T22:05:21.199Z,7.20
2023-06-15T22:07:48.475Z,7.33
2023-06-15T22:10:16.590Z,6.70
2023-06-15T22:12:44.324Z,6.67
2023-06-15T22:15:12.066Z,6.73
2023-06-15T22:17:44.514Z,8.00
2023-06-15T22:20:15.243Z,7.63
2023-06-15T22:22:42.546Z,8.20
2023-06-15T22:25:10.802Z,6.90
2023-06-15T22:27:38.097Z,8.23
2023-06-15T22:30:05.885Z,7.43
2023-06-15T22:32:32.857Z,6.87
2023-06-15T22:34:59.976Z,7.23
2023-06-15T22:37:26.982Z,7.50
2023-06-15T22:39:53.902Z,7.47
2023-06-15T22:42:21.026Z,7.00
2023-06-15T22:44:48.560Z,7.80
2023-06-15T22:47:18.971Z,7.83
2023-06-15T22:49:46.287Z,7.37
2023-06-15T22:52:14.232Z,7.03
2023-06-15T22:54:48.438Z,7.43
2023-06-15T22:57:16.183Z,8.63
2023-06-15T22:59:46.728Z,8.63
2023-06-15T23:02:14.585Z,8.90
2023-06-15T23:04:41.677Z,8.23
2023-06-15T23:07:08.870Z,8.03
2023-06-15T23:09:36.861Z,8.87
2023-06-15T23:12:04.850Z,8.43
2023-06-15T23:14:33.031Z,8.77
2023-06-15T23:17:03.202Z,8.87
2023-06-15T23:19:31.910Z,8.43
2023-06-15T23:21:59.569Z,8.30
2023-06-15T23:24:26.925Z,7.40
2023-06-15T23:26:56.598Z,8.17
2023-06-15T23:29:26.633Z,8.30
2023-06-15T23:31:53.646Z,8.10
2023-06-15T23:34:21.217Z,7.90
2023-06-15T23:36:48.298Z,8.90
2023-06-15T23:39:15.369Z,9.27
2023-06-15T23:41:42.691Z,8.57
2023-06-15T23:44:09.718Z,8.20
2023-06-15T23:46:37.003Z,8.60
2023-06-15T23:49:04.409Z,8.97
2023-06-15T23:51:31.450Z,8.23
2023-06-15T23:53:58.503Z,8.13
2023-06-15T23:56:26.746Z,8.67
2023-06-15T23:58:53.799Z,8.30
